North Hollywood, CA (91618)

4:10 AM PST on November 21, 2014 (GMT -0800)
Cahuenga Pass | Change Station
CLOSE
Current Station
Personal Weather Station
Location: Los Angeles, CA
Elevation: 850 ft
Nearby Weather Stations
Active Advisory: Flash Flood Warning

Elev 850 ft 34.13 °N, 118.35 °W | Updated 13 seconds ago

Partly Cloudy
Partly Cloudy
53.1 °F
Feels Like 53.1 °F
N
1.0
Wind Variable Wind from NW
Gusts 0.0 mph

Today
High -- | Low -- °F
--% Chance of Precip.
Yesterday
High -- | Low -- °F
Precip. -- in
6:31 AM 4:46 PM
Waning Crescent, 1% visible
Pressure 29.91 in
Visibility 10.0 miles
Clouds Clear
Dew Point 51 °F
Humidity 92%
Rainfall 0.00 in
Snow Depth Not available.
UV 0 out of 12
Pollen 1.70 out of 12
Air Quality Not available.
Flu Activity Not available.
METAR KBUR 211153Z 30003KT 10SM CLR 13/11 A2993 RMK AO2 SLP127 60000 T01280106 10161 20128 58007

More Conditions Fewer Conditions

Pressure 29.91 in
Visibility 10.0 miles
Clouds Clear
Dew Point 51 °F
Humidity 92%
Rainfall 0.00 in
Snow Depth Not available.
UV 0 out of 12
Pollen 1.70 out of 12
Air Quality Not available.
Flu Activity Not available.
METAR KBUR 211153Z 30003KT 10SM CLR 13/11 A2993 RMK AO2 SLP127 60000 T01280106 10161 20128 58007

More Conditions Fewer Conditions

Nowcast | as of 1:47 am PST on November 21, 2014

Expect a few thunderstorms to move across portions of the Los Angeles County mountains and adjacent hills to the Antelope Valley...Santa Clarita valley and into East Los Angeles and San Gabriel valley through 3 am this morning. Storms should be out of the area by 3 to 4 am this morning. These storms will be quick moving to the east-southeast. There will be brief heavy downpours...gusty erratic winds to 35 mph...occasional lighting and pea size hail possible.

×

10-Day Weather Forecast

Almanac

Astronomy

Nov. 21, 2014 Rise Set
Actual Time
Civil Twilight
Nautical Twilight
Astronomical Twilight
Moon
Length of Visible Light
Length of Day
Tomorrow will be .
, % of the Moon is Illuminated

Today's Extremes

State Highs State Lows

Community

WunderPhotos

Upload Photos

1,772,652 photos uploaded!

WunderBlogs® & News

Nearby

Air Quality

  Air Quality AQ Index Pollutant
Not available.

Snow Depth

Station Depth Elevation

Earthquake Activity

City Distance Mag. Time & Date
Minimum magnitude displayed is 2.5.

Coastal Water Temperatures

Place Temperature

Nearby Weather Stations